sensor_id;sensor_type;location;lat;lon;timestamp;pressure;altitude;pressure_sealevel;temperature;humidity
52957;BME280;38819;42.692;23.342;2023-04-28T00:01:17;95506.31;;;9.46;44.60
52957;BME280;38819;42.692;23.342;2023-04-28T00:03:42;95501.19;;;9.45;44.73
52957;BME280;38819;42.692;23.342;2023-04-28T00:06:09;95506.88;;;9.38;44.90
52957;BME280;38819;42.692;23.342;2023-04-28T00:08:35;95517.63;;;9.49;44.41
52957;BME280;38819;42.692;23.342;2023-04-28T00:11:01;95506.03;;;9.48;44.42
52957;BME280;38819;42.692;23.342;2023-04-28T00:13:26;95513.63;;;9.41;44.58
52957;BME280;38819;42.692;23.342;2023-04-28T00:15:52;95507.72;;;9.34;44.96
52957;BME280;38819;42.692;23.342;2023-04-28T00:18:18;95505.00;;;9.34;44.77
52957;BME280;38819;42.692;23.342;2023-04-28T00:20:44;95512.81;;;9.35;44.73
52957;BME280;38819;42.692;23.342;2023-04-28T00:23:09;95504.72;;;9.40;44.92
52957;BME280;38819;42.692;23.342;2023-04-28T00:25:34;95507.44;;;9.35;44.75
52957;BME280;38819;42.692;23.342;2023-04-28T00:28:00;95508.50;;;9.39;44.73
52957;BME280;38819;42.692;23.342;2023-04-28T00:30:26;95522.25;;;9.38;44.93
52957;BME280;38819;42.692;23.342;2023-04-28T00:32:51;95511.78;;;9.31;45.12
52957;BME280;38819;42.692;23.342;2023-04-28T00:35:17;95514.19;;;9.33;44.73
52957;BME280;38819;42.692;23.342;2023-04-28T00:37:42;95511.31;;;9.19;45.42
52957;BME280;38819;42.692;23.342;2023-04-28T00:40:08;95512.41;;;9.13;45.56
52957;BME280;38819;42.692;23.342;2023-04-28T00:42:34;95520.22;;;9.14;45.49
52957;BME280;38819;42.692;23.342;2023-04-28T00:44:59;95521.28;;;9.13;45.30
52957;BME280;38819;42.692;23.342;2023-04-28T00:47:31;95525.06;;;9.07;45.57
52957;BME280;38819;42.692;23.342;2023-04-28T00:49:57;95525.38;;;9.05;45.59
52957;BME280;38819;42.692;23.342;2023-04-28T00:52:23;95518.88;;;9.06;45.72
52957;BME280;38819;42.692;23.342;2023-04-28T00:54:49;95517.56;;;9.04;45.77
52957;BME280;38819;42.692;23.342;2023-04-28T00:57:14;95521.31;;;9.03;46.05
52957;BME280;38819;42.692;23.342;2023-04-28T00:59:40;95525.38;;;9.00;45.83
52957;BME280;38819;42.692;23.342;2023-04-28T01:02:05;95528.09;;;8.90;45.84
52957;BME280;38819;42.692;23.342;2023-04-28T01:04:32;95535.38;;;8.89;46.25
52957;BME280;38819;42.692;23.342;2023-04-28T01:06:59;95525.16;;;8.86;46.43
52957;BME280;38819;42.692;23.342;2023-04-28T01:09:25;95527.03;;;8.86;46.17
52957;BME280;38819;42.692;23.342;2023-04-28T01:11:50;95529.22;;;8.74;46.45
52957;BME280;38819;42.692;23.342;2023-04-28T01:14:15;95526.25;;;8.70;46.49
52957;BME280;38819;42.692;23.342;2023-04-28T01:16:41;95524.13;;;8.72;46.66
52957;BME280;38819;42.692;23.342;2023-04-28T01:19:14;95531.63;;;8.75;46.53
52957;BME280;38819;42.692;23.342;2023-04-28T01:21:41;95531.91;;;8.68;46.65
52957;BME280;38819;42.692;23.342;2023-04-28T01:24:06;95536.50;;;8.63;46.87
52957;BME280;38819;42.692;23.342;2023-04-28T01:26:32;95537.56;;;8.67;46.70
52957;BME280;38819;42.692;23.342;2023-04-28T01:28:57;95536.50;;;8.63;46.69
52957;BME280;38819;42.692;23.342;2023-04-28T01:31:23;95537.56;;;8.62;46.82
52957;BME280;38819;42.692;23.342;2023-04-28T01:33:48;95536.25;;;8.64;46.47
52957;BME280;38819;42.692;23.342;2023-04-28T01:36:13;95551.06;;;8.46;46.86
52957;BME280;38819;42.692;23.342;2023-04-28T01:38:39;95544.34;;;8.54;47.04
52957;BME280;38819;42.692;23.342;2023-04-28T01:41:04;95535.72;;;8.57;46.55
52957;BME280;38819;42.692;23.342;2023-04-28T01:43:30;95541.66;;;8.49;46.89
52957;BME280;38819;42.692;23.342;2023-04-28T01:45:55;95543.25;;;8.55;46.67
52957;BME280;38819;42.692;23.342;2023-04-28T01:48:21;95540.81;;;8.53;46.48
52957;BME280;38819;42.692;23.342;2023-04-28T01:50:46;95537.06;;;8.44;46.56
52957;BME280;38819;42.692;23.342;2023-04-28T01:53:11;95540.56;;;8.50;46.38
52957;BME280;38819;42.692;23.342;2023-04-28T01:55:37;95542.44;;;8.39;46.61
52957;BME280;38819;42.692;23.342;2023-04-28T01:58:03;95538.97;;;8.49;46.41
52957;BME280;38819;42.692;23.342;2023-04-28T02:00:28;95537.88;;;8.50;46.28
52957;BME280;38819;42.692;23.342;2023-04-28T02:02:54;95541.66;;;8.44;46.40
52957;BME280;38819;42.692;23.342;2023-04-28T02:05:19;95548.91;;;8.43;46.48
52957;BME280;38819;42.692;23.342;2023-04-28T02:07:45;95549.16;;;8.37;46.44
52957;BME280;38819;42.692;23.342;2023-04-28T02:10:10;95552.09;;;8.35;46.44
52957;BME280;38819;42.692;23.342;2023-04-28T02:12:36;95550.78;;;8.32;46.75
52957;BME280;38819;42.692;23.342;2023-04-28T02:15:01;95557.22;;;8.37;46.60
52957;BME280;38819;42.692;23.342;2023-04-28T02:17:29;95555.06;;;8.33;46.66
52957;BME280;38819;42.692;23.342;2023-04-28T02:19:55;95564.50;;;8.31;46.95
52957;BME280;38819;42.692;23.342;2023-04-28T02:22:21;95563.97;;;8.19;47.12
52957;BME280;38819;42.692;23.342;2023-04-28T02:24:46;95558.03;;;8.16;47.17
52957;BME280;38819;42.692;23.342;2023-04-28T02:27:12;95565.03;;;8.18;47.22
52957;BME280;38819;42.692;23.342;2023-04-28T02:29:38;95559.91;;;8.21;47.03
52957;BME280;38819;42.692;23.342;2023-04-28T02:32:03;95558.59;;;8.24;47.14
52957;BME280;38819;42.692;23.342;2023-04-28T02:34:29;95554.28;;;8.18;47.36
52957;BME280;38819;42.692;23.342;2023-04-28T02:36:54;95566.94;;;8.12;47.45
52957;BME280;38819;42.692;23.342;2023-04-28T02:39:20;95562.88;;;8.09;47.42
52957;BME280;38819;42.692;23.342;2023-04-28T02:41:46;95564.22;;;8.07;47.60
52957;BME280;38819;42.692;23.342;2023-04-28T02:44:12;95573.91;;;8.03;47.61
52957;BME280;38819;42.692;23.342;2023-04-28T02:46:37;95569.88;;;8.05;47.77
52957;BME280;38819;42.692;23.342;2023-04-28T02:49:03;95576.84;;;8.06;47.79
52957;BME280;38819;42.692;23.342;2023-04-28T02:51:28;95574.69;;;8.03;47.86
52957;BME280;38819;42.692;23.342;2023-04-28T02:53:53;95578.75;;;8.06;47.64
52957;BME280;38819;42.692;23.342;2023-04-28T02:56:19;95582.25;;;8.06;47.77
52957;BME280;38819;42.692;23.342;2023-04-28T02:58:44;95579.81;;;8.05;47.69
52957;BME280;38819;42.692;23.342;2023-04-28T03:01:10;95576.59;;;8.03;47.62
52957;BME280;38819;42.692;23.342;2023-04-28T03:03:35;95583.03;;;7.96;47.69
52957;BME280;38819;42.692;23.342;2023-04-28T03:06:00;95586.81;;;8.06;47.79
52957;BME280;38819;42.692;23.342;2023-04-28T03:08:26;95588.69;;;8.00;47.72
52957;BME280;38819;42.692;23.342;2023-04-28T03:10:51;95583.84;;;7.97;47.93
52957;BME280;38819;42.692;23.342;2023-04-28T03:13:16;95582.25;;;8.01;47.85
52957;BME280;38819;42.692;23.342;2023-04-28T03:15:42;95586.28;;;8.04;47.91
52957;BME280;38819;42.692;23.342;2023-04-28T03:18:07;95587.09;;;8.04;48.07
52957;BME280;38819;42.692;23.342;2023-04-28T03:20:33;95590.31;;;7.96;48.18
52957;BME280;38819;42.692;23.342;2023-04-28T03:22:58;95590.31;;;7.96;48.18
52957;BME280;38819;42.692;23.342;2023-04-28T03:25:23;95597.84;;;7.99;47.95
52957;BME280;38819;42.692;23.342;2023-04-28T03:27:49;95596.47;;;8.02;48.03
52957;BME280;38819;42.692;23.342;2023-04-28T03:30:14;95598.91;;;8.03;48.10
52957;BME280;38819;42.692;23.342;2023-04-28T03:32:40;95610.25;;;8.05;47.79
52957;BME280;38819;42.692;23.342;2023-04-28T03:35:05;95615.06;;;8.08;47.54
52957;BME280;38819;42.692;23.342;2023-04-28T03:37:31;95617.75;;;8.08;47.27
52957;BME280;38819;42.692;23.342;2023-04-28T03:39:56;95623.69;;;8.10;47.12
52957;BME280;38819;42.692;23.342;2023-04-28T03:42:22;95625.81;;;8.13;46.88
52957;BME280;38819;42.692;23.342;2023-04-28T03:44:47;95623.44;;;8.12;46.83
52957;BME280;38819;42.692;23.342;2023-04-28T03:47:13;95632.81;;;8.09;46.90
52957;BME280;38819;42.692;23.342;2023-04-28T03:49:38;95638.47;;;8.03;47.19
52957;BME280;38819;42.692;23.342;2023-04-28T03:52:03;95640.63;;;8.06;47.22
52957;BME280;38819;42.692;23.342;2023-04-28T03:54:29;95641.41;;;8.01;47.25
52957;BME280;38819;42.692;23.342;2023-04-28T03:56:55;95637.41;;;8.09;47.06
52957;BME280;38819;42.692;23.342;2023-04-28T03:59:20;95646.00;;;8.01;47.17
52957;BME280;38819;42.692;23.342;2023-04-28T04:01:46;95650.56;;;8.00;46.98
52957;BME280;38819;42.692;23.342;2023-04-28T04:04:11;95657.31;;;8.13;46.67
52957;BME280;38819;42.692;23.342;2023-04-28T04:06:37;95657.84;;;8.15;46.30
52957;BME280;38819;42.692;23.342;2023-04-28T04:09:02;95660.28;;;8.16;46.39
52957;BME280;38819;42.692;23.342;2023-04-28T04:11:28;95665.97;;;8.25;46.31
52957;BME280;38819;42.692;23.342;2023-04-28T04:13:53;95657.34;;;8.28;46.52
52957;BME280;38819;42.692;23.342;2023-04-28T04:16:18;95654.66;;;8.28;46.27
52957;BME280;38819;42.692;23.342;2023-04-28T04:18:44;95660.03;;;8.28;46.05
52957;BME280;38819;42.692;23.342;2023-04-28T04:21:09;95665.16;;;8.30;46.37
52957;BME280;38819;42.692;23.342;2023-04-28T04:23:35;95671.91;;;8.32;46.33
52957;BME280;38819;42.692;23.342;2023-04-28T04:26:00;95673.47;;;8.28;46.04
52957;BME280;38819;42.692;23.342;2023-04-28T04:28:26;95677.81;;;8.34;45.92
52957;BME280;38819;42.692;23.342;2023-04-28T04:30:51;95676.19;;;8.33;46.09
52957;BME280;38819;42.692;23.342;2023-04-28T04:33:17;95681.03;;;8.37;45.84
52957;BME280;38819;42.692;23.342;2023-04-28T04:35:42;95680.25;;;8.36;45.65
52957;BME280;38819;42.692;23.342;2023-04-28T04:38:08;95681.31;;;8.40;45.45
52957;BME280;38819;42.692;23.342;2023-04-28T04:40:34;95684.56;;;8.37;45.34
52957;BME280;38819;42.692;23.342;2023-04-28T04:43:00;95685.63;;;8.31;45.60
52957;BME280;38819;42.692;23.342;2023-04-28T04:45:26;95685.63;;;8.31;45.92
52957;BME280;38819;42.692;23.342;2023-04-28T04:47:52;95684.53;;;8.32;45.58
52957;BME280;38819;42.692;23.342;2023-04-28T04:50:17;95693.97;;;8.34;45.85
52957;BME280;38819;42.692;23.342;2023-04-28T04:52:42;95689.63;;;8.28;45.62
52957;BME280;38819;42.692;23.342;2023-04-28T04:55:08;95699.63;;;8.38;45.46
52957;BME280;38819;42.692;23.342;2023-04-28T04:57:35;95695.59;;;8.35;45.45
52957;BME280;38819;42.692;23.342;2023-04-28T05:00:02;95690.19;;;8.30;45.27
52957;BME280;38819;42.692;23.342;2023-04-28T05:02:28;95695.59;;;8.35;45.45
52957;BME280;38819;42.692;23.342;2023-04-28T05:04:54;95710.16;;;8.45;45.44
52957;BME280;38819;42.692;23.342;2023-04-28T05:07:19;95700.47;;;8.49;45.29
52957;BME280;38819;42.692;23.342;2023-04-28T05:09:44;95711.78;;;8.51;45.50
52957;BME280;38819;42.692;23.342;2023-04-28T05:12:10;95703.44;;;8.58;45.38
52957;BME280;38819;42.692;23.342;2023-04-28T05:14:36;95710.47;;;8.64;45.22
52957;BME280;38819;42.692;23.342;2023-04-28T05:17:01;95709.38;;;8.75;45.10
52957;BME280;38819;42.692;23.342;2023-04-28T05:19:26;95707.50;;;8.76;44.68
52957;BME280;38819;42.692;23.342;2023-04-28T05:21:52;95708.03;;;8.78;44.77
52957;BME280;38819;42.692;23.342;2023-04-28T05:24:20;95708.31;;;8.81;44.77
52957;BME280;38819;42.692;23.342;2023-04-28T05:26:48;95712.38;;;8.89;44.46
52957;BME280;38819;42.692;23.342;2023-04-28T05:29:14;95703.72;;;8.87;44.57
52957;BME280;38819;42.692;23.342;2023-04-28T05:31:40;95702.66;;;8.78;44.93
52957;BME280;38819;42.692;23.342;2023-04-28T05:34:05;95707.25;;;8.87;45.10
52957;BME280;38819;42.692;23.342;2023-04-28T05:36:30;95712.38;;;8.99;44.79
52957;BME280;38819;42.692;23.342;2023-04-28T05:38:56;95706.44;;;9.07;44.78
52957;BME280;38819;42.692;23.342;2023-04-28T05:41:22;95704.56;;;8.82;45.20
52957;BME280;38819;42.692;23.342;2023-04-28T05:43:47;95689.47;;;8.76;45.83
52957;BME280;38819;42.692;23.342;2023-04-28T05:46:15;95708.84;;;8.88;44.97
52957;BME280;38819;42.692;23.342;2023-04-28T05:48:40;95708.31;;;8.71;45.01
52957;BME280;38819;42.692;23.342;2023-04-28T05:51:06;95700.50;;;8.80;45.12
52957;BME280;38819;42.692;23.342;2023-04-28T05:53:31;95698.63;;;8.85;45.09
52957;BME280;38819;42.692;23.342;2023-04-28T05:55:57;95705.88;;;8.95;45.10
52957;BME280;38819;42.692;23.342;2023-04-28T05:58:22;95711.84;;;8.92;44.93
52957;BME280;38819;42.692;23.342;2023-04-28T06:00:47;95709.13;;;8.87;45.37
52957;BME280;38819;42.692;23.342;2023-04-28T06:03:13;95717.75;;;8.84;44.94
52957;BME280;38819;42.692;23.342;2023-04-28T06:05:39;95703.47;;;8.78;45.24
52957;BME280;38819;42.692;23.342;2023-04-28T06:08:05;95701.84;;;8.87;45.78
52957;BME280;38819;42.692;23.342;2023-04-28T06:10:32;95711.00;;;9.02;45.47
52957;BME280;38819;42.692;23.342;2023-04-28T06:12:57;95707.22;;;9.13;44.49
52957;BME280;38819;42.692;23.342;2023-04-28T06:15:22;95720.97;;;9.01;44.63
52957;BME280;38819;42.692;23.342;2023-04-28T06:17:48;95713.72;;;9.17;44.66
52957;BME280;38819;42.692;23.342;2023-04-28T06:20:13;95707.47;;;9.27;44.81
52957;BME280;38819;42.692;23.342;2023-04-28T06:22:39;95724.47;;;9.22;44.94
52957;BME280;38819;42.692;23.342;2023-04-28T06:25:06;95716.66;;;9.21;44.83
52957;BME280;38819;42.692;23.342;2023-04-28T06:27:31;95713.97;;;9.16;45.00
52957;BME280;38819;42.692;23.342;2023-04-28T06:29:57;95713.72;;;9.12;44.88
52957;BME280;38819;42.692;23.342;2023-04-28T06:32:23;95716.09;;;9.34;44.46
52957;BME280;38819;42.692;23.342;2023-04-28T06:34:48;95713.41;;;9.34;44.03
52957;BME280;38819;42.692;23.342;2023-04-28T06:37:14;95722.03;;;9.41;43.95
52957;BME280;38819;42.692;23.342;2023-04-28T06:39:39;95707.97;;;9.50;43.76
52957;BME280;38819;42.692;23.342;2023-04-28T06:42:05;95708.47;;;9.62;43.66
52957;BME280;38819;42.692;23.342;2023-04-28T06:44:30;95700.97;;;9.59;43.94
52957;BME280;38819;42.692;23.342;2023-04-28T06:46:56;95700.38;;;9.62;43.58
52957;BME280;38819;42.692;23.342;2023-04-28T06:49:21;95695.81;;;9.62;43.96
52957;BME280;38819;42.692;23.342;2023-04-28T06:51:46;95690.94;;;9.70;44.18
52957;BME280;38819;42.692;23.342;2023-04-28T06:54:12;95693.59;;;9.80;43.91
52957;BME280;38819;42.692;23.342;2023-04-28T06:56:37;95705.19;;;9.80;43.17
52957;BME280;38819;42.692;23.342;2023-04-28T06:59:03;95697.09;;;9.75;43.05
52957;BME280;38819;42.692;23.342;2023-04-28T07:01:28;95705.19;;;9.80;43.28
52957;BME280;38819;42.692;23.342;2023-04-28T07:03:54;95691.81;;;9.50;44.74
52957;BME280;38819;42.692;23.342;2023-04-28T07:06:19;95698.25;;;9.64;43.60
52957;BME280;38819;42.692;23.342;2023-04-28T07:08:45;95703.88;;;9.73;43.17
52957;BME280;38819;42.692;23.342;2023-04-28T07:11:10;95692.00;;;9.74;43.29
52957;BME280;38819;42.692;23.342;2023-04-28T07:13:36;95696.78;;;9.87;43.74
52957;BME280;38819;42.692;23.342;2023-04-28T07:16:02;95699.78;;;9.91;42.88
52957;BME280;38819;42.692;23.342;2023-04-28T07:18:28;95688.66;;;10.02;42.36
52957;BME280;38819;42.692;23.342;2023-04-28T07:20:53;95690.78;;;10.11;42.88
52957;BME280;38819;42.692;23.342;2023-04-28T07:23:18;95695.88;;;10.17;41.94
52957;BME280;38819;42.692;23.342;2023-04-28T07:25:44;95696.13;;;10.21;40.47
52957;BME280;38819;42.692;23.342;2023-04-28T07:28:09;95683.94;;;10.24;40.04
52957;BME280;38819;42.692;23.342;2023-04-28T07:30:35;95686.91;;;10.32;40.25
52957;BME280;38819;42.692;23.342;2023-04-28T07:33:01;95679.84;;;10.36;39.75
52957;BME280;38819;42.692;23.342;2023-04-28T07:35:27;95687.63;;;10.48;39.85
52957;BME280;38819;42.692;23.342;2023-04-28T07:37:53;95692.19;;;10.53;40.39
52957;BME280;38819;42.692;23.342;2023-04-28T07:40:19;95691.63;;;10.56;40.14
52957;BME280;38819;42.692;23.342;2023-04-28T07:42:45;95686.50;;;10.54;40.69
52957;BME280;38819;42.692;23.342;2023-04-28T07:45:11;95688.03;;;10.66;40.63
52957;BME280;38819;42.692;23.342;2023-04-28T07:47:37;95688.56;;;10.68;39.91
52957;BME280;38819;42.692;23.342;2023-04-28T07:50:03;95689.56;;;10.77;38.78
52957;BME280;38819;42.692;23.342;2023-04-28T07:52:30;95689.53;;;10.82;39.07
52957;BME280;38819;42.692;23.342;2023-04-28T07:54:56;95680.75;;;10.66;38.44
52957;BME280;38819;42.692;23.342;2023-04-28T07:57:22;95675.88;;;10.68;38.66
52957;BME280;38819;42.692;23.342;2023-04-28T07:59:47;95685.50;;;10.80;38.64
52957;BME280;38819;42.692;23.342;2023-04-28T08:02:13;95684.56;;;10.60;38.70
52957;BME280;38819;42.692;23.342;2023-04-28T08:04:39;95684.09;;;10.53;38.44
52957;BME280;38819;42.692;23.342;2023-04-28T08:07:05;95689.78;;;10.46;38.39
52957;BME280;38819;42.692;23.342;2023-04-28T08:09:31;95687.59;;;10.53;37.84
52957;BME280;38819;42.692;23.342;2023-04-28T08:11:56;95681.03;;;10.65;38.49
52957;BME280;38819;42.692;23.342;2023-04-28T08:14:23;95679.59;;;10.72;38.20
52957;BME280;38819;42.692;23.342;2023-04-28T08:16:48;95680.16;;;10.74;38.12
52957;BME280;38819;42.692;23.342;2023-04-28T08:19:14;95684.25;;;10.67;37.82
52957;BME280;38819;42.692;23.342;2023-04-28T08:21:39;95682.63;;;10.71;38.26
52957;BME280;38819;42.692;23.342;2023-04-28T08:24:05;95679.44;;;10.59;38.51
52957;BME280;38819;42.692;23.342;2023-04-28T08:26:32;95699.22;;;10.49;38.30
52957;BME280;38819;42.692;23.342;2023-04-28T08:28:57;95677.25;;;10.61;38.46
52957;BME280;38819;42.692;23.342;2023-04-28T08:31:23;95676.91;;;10.72;38.22
52957;BME280;38819;42.692;23.342;2023-04-28T08:33:48;95680.31;;;10.88;38.15
52957;BME280;38819;42.692;23.342;2023-04-28T08:36:16;95677.59;;;10.88;38.14
52957;BME280;38819;42.692;23.342;2023-04-28T08:38:43;95673.50;;;10.96;37.53
52957;BME280;38819;42.692;23.342;2023-04-28T08:41:09;95675.88;;;11.03;37.85
52957;BME280;38819;42.692;23.342;2023-04-28T08:43:35;95677.13;;;11.10;37.65
52957;BME280;38819;42.692;23.342;2023-04-28T08:46:05;95675.25;;;11.11;37.43
52957;BME280;38819;42.692;23.342;2023-04-28T08:48:40;95655.78;;;11.09;37.15
52957;BME280;38819;42.692;23.342;2023-04-28T08:51:08;95661.25;;;11.04;37.35
52957;BME280;38819;42.692;23.342;2023-04-28T08:53:38;95665.84;;;11.03;37.88
52957;BME280;38819;42.692;23.342;2023-04-28T08:56:05;95660.44;;;11.03;38.36
52957;BME280;38819;42.692;23.342;2023-04-28T08:58:34;95664.69;;;10.80;38.05
52957;BME280;38819;42.692;23.342;2023-04-28T09:00:59;95656.06;;;10.78;37.97
52957;BME280;38819;42.692;23.342;2023-04-28T09:03:28;95653.78;;;10.90;38.19
52957;BME280;38819;42.692;23.342;2023-04-28T09:05:54;95650.47;;;10.99;37.99
52957;BME280;38819;42.692;23.342;2023-04-28T09:08:20;95657.84;;;10.93;37.72
52957;BME280;38819;42.692;23.342;2023-04-28T09:10:45;95654.75;;;11.05;38.17
52957;BME280;38819;42.692;23.342;2023-04-28T09:13:23;95651.28;;;11.28;37.60
52957;BME280;38819;42.692;23.342;2023-04-28T09:15:49;95638.44;;;11.39;37.84
52957;BME280;38819;42.692;23.342;2023-04-28T09:18:15;95629.06;;;11.56;37.42
52957;BME280;38819;42.692;23.342;2023-04-28T09:20:40;95643.47;;;11.75;37.00
52957;BME280;38819;42.692;23.342;2023-04-28T09:23:14;95636.22;;;11.71;36.31
52957;BME280;38819;42.692;23.342;2023-04-28T09:28:21;95632.72;;;11.70;36.08
52957;BME280;38819;42.692;23.342;2023-04-28T09:30:46;95630.66;;;11.81;36.51
52957;BME280;38819;42.692;23.342;2023-04-28T09:33:12;95619.56;;;11.82;36.22
52957;BME280;38819;42.692;23.342;2023-04-28T09:35:39;95623.38;;;11.81;35.95
52957;BME280;38819;42.692;23.342;2023-04-28T09:38:05;95625.44;;;11.90;36.23
52957;BME280;38819;42.692;23.342;2023-04-28T09:40:30;95621.78;;;11.99;36.33
52957;BME280;38819;42.692;23.342;2023-04-28T09:42:56;95621.88;;;11.94;36.15
52957;BME280;38819;42.692;23.342;2023-04-28T09:45:22;95614.38;;;11.86;35.79
52957;BME280;38819;42.692;23.342;2023-04-28T09:47:48;95605.22;;;11.82;35.75
52957;BME280;38819;42.692;23.342;2023-04-28T09:50:15;95604.84;;;11.70;36.23
52957;BME280;38819;42.692;23.342;2023-04-28T09:52:45;95618.97;;;11.85;35.57
52957;BME280;38819;42.692;23.342;2023-04-28T09:55:20;95611.78;;;12.00;35.02
52957;BME280;38819;42.692;23.342;2023-04-28T09:57:48;95605.19;;;12.06;35.86
52957;BME280;38819;42.692;23.342;2023-04-28T10:00:15;95596.34;;;12.19;34.93
52957;BME280;38819;42.692;23.342;2023-04-28T10:02:42;95590.72;;;12.35;35.13
52957;BME280;38819;42.692;23.342;2023-04-28T10:05:08;95586.66;;;12.51;34.43
52957;BME280;38819;42.692;23.342;2023-04-28T10:07:34;95592.69;;;12.48;32.88
52957;BME280;38819;42.692;23.342;2023-04-28T10:10:00;95585.72;;;12.42;33.05
52957;BME280;38819;42.692;23.342;2023-04-28T10:12:26;95583.97;;;12.51;32.71
52957;BME280;38819;42.692;23.342;2023-04-28T10:14:52;95574.13;;;12.55;33.39
52957;BME280;38819;42.692;23.342;2023-04-28T10:17:21;95596.75;;;12.65;34.24
52957;BME280;38819;42.692;23.342;2023-04-28T10:19:51;95588.19;;;12.57;34.11
52957;BME280;38819;42.692;23.342;2023-04-28T10:27:37;95583.50;;;12.63;34.06
52957;BME280;38819;42.692;23.342;2023-04-28T10:30:17;95577.69;;;12.70;33.43
52957;BME280;38819;42.692;23.342;2023-04-28T10:32:44;95569.88;;;12.82;32.12
52957;BME280;38819;42.692;23.342;2023-04-28T10:38:11;95568.41;;;12.90;32.79
52957;BME280;38819;42.692;23.342;2023-04-28T10:43:13;95551.56;;;13.07;32.21
52957;BME280;38819;42.692;23.342;2023-04-28T10:56:14;95525.84;;;12.90;31.90
52957;BME280;38819;42.692;23.342;2023-04-28T10:58:41;95534.47;;;13.06;32.25
52957;BME280;38819;42.692;23.342;2023-04-28T11:08:43;95522.22;;;13.09;31.35
52957;BME280;38819;42.692;23.342;2023-04-28T11:11:18;95521.53;;;13.17;31.82
52957;BME280;38819;42.692;23.342;2023-04-28T11:13:44;95522.94;;;13.28;30.56
52957;BME280;38819;42.692;23.342;2023-04-28T11:16:13;95514.63;;;13.39;30.30
52957;BME280;38819;42.692;23.342;2023-04-28T11:18:51;95516.41;;;13.29;29.47
52957;BME280;38819;42.692;23.342;2023-04-28T11:21:20;95511.19;;;13.47;29.98
52957;BME280;38819;42.692;23.342;2023-04-28T11:23:46;95506.94;;;13.55;30.69
52957;BME280;38819;42.692;23.342;2023-04-28T11:26:13;95505.31;;;13.67;30.82
52957;BME280;38819;42.692;23.342;2023-04-28T11:28:46;95501.94;;;13.62;31.25
52957;BME280;38819;42.692;23.342;2023-04-28T11:31:13;95520.22;;;13.70;31.68
52957;BME280;38819;42.692;23.342;2023-04-28T11:33:44;95508.84;;;13.68;31.82
52957;BME280;38819;42.692;23.342;2023-04-28T11:38:47;95489.63;;;13.78;31.99
52957;BME280;38819;42.692;23.342;2023-04-28T11:41:13;95488.44;;;13.70;31.75
52957;BME280;38819;42.692;23.342;2023-04-28T11:43:39;95478.38;;;13.71;31.96
52957;BME280;38819;42.692;23.342;2023-04-28T11:46:06;95484.28;;;13.73;32.49
52957;BME280;38819;42.692;23.342;2023-04-28T11:48:32;95475.94;;;13.83;32.63
52957;BME280;38819;42.692;23.342;2023-04-28T11:50:57;95480.44;;;13.88;31.86
52957;BME280;38819;42.692;23.342;2023-04-28T11:53:43;95479.69;;;13.96;32.38
52957;BME280;38819;42.692;23.342;2023-04-28T11:56:08;95484.28;;;14.09;31.83
52957;BME280;38819;42.692;23.342;2023-04-28T11:58:34;95477.50;;;14.21;31.79
52957;BME280;38819;42.692;23.342;2023-04-28T12:01:26;95473.97;;;14.20;32.41
52957;BME280;38819;42.692;23.342;2023-04-28T12:03:51;95463.97;;;14.30;32.25
52957;BME280;38819;42.692;23.342;2023-04-28T12:06:17;95466.75;;;14.38;32.42
52957;BME280;38819;42.692;23.342;2023-04-28T12:08:43;95455.69;;;14.35;31.78
52957;BME280;38819;42.692;23.342;2023-04-28T12:11:10;95469.81;;;14.45;31.77
52957;BME280;38819;42.692;23.342;2023-04-28T12:13:37;95469.22;;;14.49;31.50
52957;BME280;38819;42.692;23.342;2023-04-28T12:16:04;95453.22;;;14.47;31.84
52957;BME280;38819;42.692;23.342;2023-04-28T12:18:36;95452.75;;;14.54;32.14
52957;BME280;38819;42.692;23.342;2023-04-28T12:21:03;95450.22;;;14.57;32.57
52957;BME280;38819;42.692;23.342;2023-04-28T12:23:34;95453.63;;;14.63;32.77
52957;BME280;38819;42.692;23.342;2023-04-28T12:26:01;95447.59;;;14.75;32.15
52957;BME280;38819;42.692;23.342;2023-04-28T12:28:40;95441.84;;;14.45;31.96
52957;BME280;38819;42.692;23.342;2023-04-28T12:31:08;95435.47;;;14.50;32.16
52957;BME280;38819;42.692;23.342;2023-04-28T12:33:34;95449.13;;;14.58;31.94
52957;BME280;38819;42.692;23.342;2023-04-28T12:36:04;95429.88;;;14.55;31.59
52957;BME280;38819;42.692;23.342;2023-04-28T12:38:32;95426.56;;;14.58;31.69
52957;BME280;38819;42.692;23.342;2023-04-28T12:40:58;95426.31;;;14.68;31.79
52957;BME280;38819;42.692;23.342;2023-04-28T12:43:24;95421.41;;;14.79;32.25
52957;BME280;38819;42.692;23.342;2023-04-28T12:45:52;95423.41;;;14.64;32.67
52957;BME280;38819;42.692;23.342;2023-04-28T12:48:18;95422.97;;;14.71;32.63
52957;BME280;38819;42.692;23.342;2023-04-28T12:50:44;95415.19;;;14.78;32.45
52957;BME280;38819;42.692;23.342;2023-04-28T12:53:10;95419.00;;;14.77;32.22
52957;BME280;38819;42.692;23.342;2023-04-28T12:55:36;95420.28;;;14.80;32.12
52957;BME280;38819;42.692;23.342;2023-04-28T12:58:04;95416.47;;;14.90;31.46
52957;BME280;38819;42.692;23.342;2023-04-28T13:00:29;95417.78;;;14.92;31.59
52957;BME280;38819;42.692;23.342;2023-04-28T13:02:56;95398.56;;;14.89;31.41
52957;BME280;38819;42.692;23.342;2023-04-28T13:05:21;95407.06;;;14.96;31.74
52957;BME280;38819;42.692;23.342;2023-04-28T13:07:47;95400.31;;;14.93;31.01
52957;BME280;38819;42.692;23.342;2023-04-28T13:10:14;95401.00;;;14.99;30.99
52957;BME280;38819;42.692;23.342;2023-04-28T13:12:40;95402.47;;;15.05;30.51
52957;BME280;38819;42.692;23.342;2023-04-28T13:15:06;95398.28;;;15.08;30.37
52957;BME280;38819;42.692;23.342;2023-04-28T13:17:32;95395.25;;;15.09;30.98
52957;BME280;38819;42.692;23.342;2023-04-28T13:19:58;95398.47;;;15.20;30.82
52957;BME280;38819;42.692;23.342;2023-04-28T13:22:25;95399.75;;;15.23;30.73
52957;BME280;38819;42.692;23.342;2023-04-28T13:24:51;95390.19;;;15.25;30.82